Mooresboro, North Carolina
Current Conditions -  °F | °C
As of 2:35 AM on Wednesday 26 Nov 2014 (Local Time) from KEHO Reporting Station
Moderate Rain Moderate Rain  
Wind Chill: 41°   Ceiling: 5000
Heat Index: 45°   Visibility: 7mi
Dew Point: 43°   Wind: 8mph
Humidity: 93%   Direction: 360°N
Pressure: 29.97"   Gusts: NA
Location:  35.3°N, 81.7°W
Report Text: KEHO 260735Z AUTO 36007KT 7SM RA OVC050 07/06 A2997 RMK AO2 P0002 T00720062
Loading
Personal Weather Stations






























Interactive Weather Map New forecast layout! Learn more

10-Day Weather Forecast

Advertisements
Track Severe Weather on mobile